sensor_id;sensor_type;location;lat;lon;timestamp;pressure;altitude;pressure_sealevel;temperature;humidity
64616;BME280;51027;42.162;24.754;2023-01-08T00:01:55;100435.53;;;3.08;87.44
64616;BME280;51027;42.162;24.754;2023-01-08T00:04:20;100435.56;;;3.22;87.17
64616;BME280;51027;42.162;24.754;2023-01-08T00:06:46;100433.00;;;3.28;86.54
64616;BME280;51027;42.162;24.754;2023-01-08T00:09:11;100432.06;;;3.13;87.06
64616;BME280;51027;42.162;24.754;2023-01-08T00:11:37;100433.00;;;3.31;86.55
64616;BME280;51027;42.162;24.754;2023-01-08T00:14:03;100416.47;;;3.26;86.06
64616;BME280;51027;42.162;24.754;2023-01-08T00:16:29;100435.56;;;3.22;86.40
64616;BME280;51027;42.162;24.754;2023-01-08T00:18:55;100435.53;;;3.09;87.25
64616;BME280;51027;42.162;24.754;2023-01-08T00:21:20;100432.97;;;3.22;86.68
64616;BME280;51027;42.162;24.754;2023-01-08T00:23:46;100411.94;;;2.59;88.30
64616;BME280;51027;42.162;24.754;2023-01-08T00:26:12;100436.28;;;2.78;89.16
64616;BME280;51027;42.162;24.754;2023-01-08T00:28:38;100413.53;;;2.34;90.52
64616;BME280;51027;42.162;24.754;2023-01-08T00:31:09;100401.56;;;2.70;89.10
64616;BME280;51027;42.162;24.754;2023-01-08T00:33:35;100432.06;;;3.10;87.72
64616;BME280;51027;42.162;24.754;2023-01-08T00:36:12;100440.53;;;2.62;89.21
64616;BME280;51027;42.162;24.754;2023-01-08T00:38:38;100445.69;;;2.48;90.05
64616;BME280;51027;42.162;24.754;2023-01-08T00:41:04;100444.81;;;2.52;89.78
64616;BME280;51027;42.162;24.754;2023-01-08T00:43:30;100442.28;;;2.65;88.77
64616;BME280;51027;42.162;24.754;2023-01-08T00:45:56;100426.63;;;2.49;89.53
64616;BME280;51027;42.162;24.754;2023-01-08T00:48:22;100430.16;;;2.64;89.07
64616;BME280;51027;42.162;24.754;2023-01-08T00:50:49;100435.38;;;2.74;88.61
64616;BME280;51027;42.162;24.754;2023-01-08T00:53:17;100443.19;;;2.73;88.57
64616;BME280;51027;42.162;24.754;2023-01-08T00:55:43;100442.38;;;2.81;88.45
64616;BME280;51027;42.162;24.754;2023-01-08T00:58:09;100427.53;;;2.65;88.92
64616;BME280;51027;42.162;24.754;2023-01-08T01:00:35;100448.41;;;2.74;88.68
64616;BME280;51027;42.162;24.754;2023-01-08T01:03:00;100438.75;;;2.50;88.70
64616;BME280;51027;42.162;24.754;2023-01-08T01:05:26;100430.03;;;2.42;90.05
64616;BME280;51027;42.162;24.754;2023-01-08T01:07:51;100444.81;;;2.54;89.64
64616;BME280;51027;42.162;24.754;2023-01-08T01:10:17;100436.97;;;2.40;90.66
64616;BME280;51027;42.162;24.754;2023-01-08T01:12:42;100435.38;;;2.67;89.12
64616;BME280;51027;42.162;24.754;2023-01-08T01:15:12;100434.47;;;2.65;89.04
64616;BME280;51027;42.162;24.754;2023-01-08T01:17:40;100414.53;;;2.56;89.05
64616;BME280;51027;42.162;24.754;2023-01-08T01:20:07;100425.81;;;2.64;88.81
64616;BME280;51027;42.162;24.754;2023-01-08T01:22:33;100430.13;;;2.62;89.31
64616;BME280;51027;42.162;24.754;2023-01-08T01:24:59;100424.06;;;2.60;89.33
64616;BME280;51027;42.162;24.754;2023-01-08T01:27:25;100423.22;;;2.66;88.79
64616;BME280;51027;42.162;24.754;2023-01-08T01:29:50;100422.34;;;2.64;88.94
64616;BME280;51027;42.162;24.754;2023-01-08T01:32:16;100418.09;;;2.85;87.71
64616;BME280;51027;42.162;24.754;2023-01-08T01:34:42;100427.59;;;2.70;88.42
64616;BME280;51027;42.162;24.754;2023-01-08T01:37:09;100405.00;;;2.61;88.60
64616;BME280;51027;42.162;24.754;2023-01-08T01:39:36;100410.16;;;2.53;89.04
64616;BME280;51027;42.162;24.754;2023-01-08T01:42:01;100417.97;;;2.53;89.68
64616;BME280;51027;42.162;24.754;2023-01-08T01:47:17;100411.13;;;2.74;88.31
64616;BME280;51027;42.162;24.754;2023-01-08T01:49:50;100407.59;;;2.59;88.90
64616;BME280;51027;42.162;24.754;2023-01-08T01:52:17;100403.34;;;2.77;88.42
64616;BME280;51027;42.162;24.754;2023-01-08T01:54:44;100393.75;;;2.65;88.33
64616;BME280;51027;42.162;24.754;2023-01-08T01:57:10;100398.88;;;2.50;88.78
64616;BME280;51027;42.162;24.754;2023-01-08T01:59:36;100410.09;;;2.40;89.23
64616;BME280;51027;42.162;24.754;2023-01-08T02:02:01;100410.09;;;2.43;90.40
64616;BME280;51027;42.162;24.754;2023-01-08T02:04:27;100407.50;;;2.44;89.82
64616;BME280;51027;42.162;24.754;2023-01-08T02:07:00;100382.38;;;2.36;89.66
64616;BME280;51027;42.162;24.754;2023-01-08T02:09:42;100408.47;;;2.58;88.89
64616;BME280;51027;42.162;24.754;2023-01-08T02:12:29;100404.09;;;2.54;89.37
64616;BME280;51027;42.162;24.754;2023-01-08T02:20:26;100405.81;;;2.46;89.72
64616;BME280;51027;42.162;24.754;2023-01-08T02:24:08;100397.97;;;2.39;90.21
64616;BME280;51027;42.162;24.754;2023-01-08T02:28:48;100404.03;;;2.38;90.19
64616;BME280;51027;42.162;24.754;2023-01-08T02:31:17;100405.00;;;2.58;89.18
64616;BME280;51027;42.162;24.754;2023-01-08T02:33:44;100405.81;;;2.54;89.25
64616;BME280;51027;42.162;24.754;2023-01-08T02:38:37;100392.81;;;2.48;89.57
64616;BME280;51027;42.162;24.754;2023-01-08T02:41:09;100389.25;;;2.32;89.75
64616;BME280;51027;42.162;24.754;2023-01-08T02:46:02;100400.56;;;2.39;89.78
64616;BME280;51027;42.162;24.754;2023-01-08T02:48:44;100395.38;;;2.40;89.87
64616;BME280;51027;42.162;24.754;2023-01-08T02:51:30;100396.22;;;2.36;89.79
64616;BME280;51027;42.162;24.754;2023-01-08T02:54:01;100397.09;;;2.38;90.15
64616;BME280;51027;42.162;24.754;2023-01-08T02:56:29;100403.09;;;2.26;90.25
64616;BME280;51027;42.162;24.754;2023-01-08T02:58:57;100401.44;;;2.39;89.94
64616;BME280;51027;42.162;24.754;2023-01-08T03:01:24;100378.81;;;2.24;89.87
64616;BME280;51027;42.162;24.754;2023-01-08T03:03:57;100397.91;;;2.33;90.30
64616;BME280;51027;42.162;24.754;2023-01-08T03:06:24;100397.09;;;2.37;90.16
64616;BME280;51027;42.162;24.754;2023-01-08T03:08:52;100381.41;;;2.18;90.22
64616;BME280;51027;42.162;24.754;2023-01-08T03:11:22;100396.19;;;2.35;90.25
64616;BME280;51027;42.162;24.754;2023-01-08T03:13:59;100395.97;;;1.95;92.07
64616;BME280;51027;42.162;24.754;2023-01-08T03:16:37;100390.97;;;2.25;90.55
64616;BME280;51027;42.162;24.754;2023-01-08T03:21:38;100383.81;;;1.89;92.16
64616;BME280;51027;42.162;24.754;2023-01-08T03:24:05;100388.13;;;1.86;91.91
64616;BME280;51027;42.162;24.754;2023-01-08T03:26:32;100409.69;;;1.77;93.04
64616;BME280;51027;42.162;24.754;2023-01-08T03:29:00;100409.09;;;2.15;91.38
64616;BME280;51027;42.162;24.754;2023-01-08T03:31:27;100396.13;;;2.18;91.32
64616;BME280;51027;42.162;24.754;2023-01-08T03:33:54;100388.31;;;2.19;90.49
64616;BME280;51027;42.162;24.754;2023-01-08T03:36:23;100402.13;;;2.14;90.32
64616;BME280;51027;42.162;24.754;2023-01-08T03:38:55;100393.41;;;1.98;90.01
64616;BME280;51027;42.162;24.754;2023-01-08T03:41:23;100395.31;;;2.25;89.94
64616;BME280;51027;42.162;24.754;2023-01-08T03:43:50;100388.31;;;2.19;90.16
64616;BME280;51027;42.162;24.754;2023-01-08T03:46:21;100396.97;;;2.15;90.14
64616;BME280;51027;42.162;24.754;2023-01-08T03:48:48;100391.78;;;2.20;90.22
64616;BME280;51027;42.162;24.754;2023-01-08T03:51:14;100390.06;;;2.16;89.69
64616;BME280;51027;42.162;24.754;2023-01-08T03:53:39;100387.41;;;2.07;90.05
64616;BME280;51027;42.162;24.754;2023-01-08T03:56:05;100397.00;;;2.20;89.95
64616;BME280;51027;42.162;24.754;2023-01-08T03:58:31;100388.41;;;2.33;89.20
64616;BME280;51027;42.162;24.754;2023-01-08T04:00:56;100388.38;;;2.25;89.45
64616;BME280;51027;42.162;24.754;2023-01-08T04:03:21;100364.06;;;2.17;89.44
64616;BME280;51027;42.162;24.754;2023-01-08T04:05:48;100357.19;;;2.31;89.14
64616;BME280;51027;42.162;24.754;2023-01-08T04:08:14;100391.03;;;2.36;88.90
64616;BME280;51027;42.162;24.754;2023-01-08T04:10:39;100326.59;;;1.77;90.14
64616;BME280;51027;42.162;24.754;2023-01-08T04:13:04;100397.72;;;2.00;90.14
64616;BME280;51027;42.162;24.754;2023-01-08T04:15:30;100375.06;;;1.80;91.34
64616;BME280;51027;42.162;24.754;2023-01-08T04:17:55;100408.91;;;1.90;91.32
64616;BME280;51027;42.162;24.754;2023-01-08T04:20:21;100405.50;;;1.96;90.35
64616;BME280;51027;42.162;24.754;2023-01-08T04:22:46;100402.84;;;1.88;89.92
64616;BME280;51027;42.162;24.754;2023-01-08T04:25:12;100409.78;;;1.88;89.87
64616;BME280;51027;42.162;24.754;2023-01-08T04:27:37;100405.38;;;1.79;90.14
64616;BME280;51027;42.162;24.754;2023-01-08T04:30:03;100417.34;;;1.62;90.56
64616;BME280;51027;42.162;24.754;2023-01-08T04:32:29;100391.44;;;1.68;90.16
64616;BME280;51027;42.162;24.754;2023-01-08T04:34:54;100420.94;;;1.76;90.65
64616;BME280;51027;42.162;24.754;2023-01-08T04:37:20;100412.44;;;1.95;90.16
64616;BME280;51027;42.162;24.754;2023-01-08T04:39:45;100412.47;;;2.03;90.12
64616;BME280;51027;42.162;24.754;2023-01-08T04:42:10;100417.56;;;1.91;90.66
64616;BME280;51027;42.162;24.754;2023-01-08T04:44:36;100419.28;;;1.84;91.64
64616;BME280;51027;42.162;24.754;2023-01-08T04:47:01;100423.56;;;1.84;92.00
64616;BME280;51027;42.162;24.754;2023-01-08T04:49:26;100427.00;;;1.80;91.63
64616;BME280;51027;42.162;24.754;2023-01-08T04:51:52;100423.56;;;1.81;91.59
64616;BME280;51027;42.162;24.754;2023-01-08T04:54:17;100424.44;;;1.81;91.63
64616;BME280;51027;42.162;24.754;2023-01-08T04:56:43;100428.75;;;1.84;91.50
64616;BME280;51027;42.162;24.754;2023-01-08T04:59:08;100423.59;;;1.85;91.53
64616;BME280;51027;42.162;24.754;2023-01-08T05:01:33;100427.97;;;1.91;91.32
64616;BME280;51027;42.162;24.754;2023-01-08T05:04:01;100429.63;;;1.81;91.14
64616;BME280;51027;42.162;24.754;2023-01-08T05:06:28;100427.72;;;1.63;91.65
64616;BME280;51027;42.162;24.754;2023-01-08T05:08:54;100437.34;;;1.73;91.63
64616;BME280;51027;42.162;24.754;2023-01-08T05:11:20;100416.25;;;1.37;92.03
64616;BME280;51027;42.162;24.754;2023-01-08T05:13:50;100434.75;;;1.73;91.67
64616;BME280;51027;42.162;24.754;2023-01-08T05:16:16;100441.75;;;1.82;90.82
64616;BME280;51027;42.162;24.754;2023-01-08T05:18:42;100432.88;;;1.54;91.81
64616;BME280;51027;42.162;24.754;2023-01-08T05:21:07;100434.50;;;1.46;92.26
64616;BME280;51027;42.162;24.754;2023-01-08T05:23:33;100431.94;;;1.51;91.81
64616;BME280;51027;42.162;24.754;2023-01-08T05:26:00;100435.97;;;1.20;92.59
64616;BME280;51027;42.162;24.754;2023-01-08T05:28:27;100436.91;;;1.25;93.95
64616;BME280;51027;42.162;24.754;2023-01-08T05:30:53;100442.41;;;1.55;92.57
64616;BME280;51027;42.162;24.754;2023-01-08T05:33:19;100443.16;;;1.43;92.39
64616;BME280;51027;42.162;24.754;2023-01-08T05:35:45;100448.19;;;1.33;92.89
64616;BME280;51027;42.162;24.754;2023-01-08T05:38:10;100446.41;;;1.24;93.71
64616;BME280;51027;42.162;24.754;2023-01-08T05:40:36;100438.47;;;1.10;93.76
64616;BME280;51027;42.162;24.754;2023-01-08T05:43:01;100440.06;;;0.99;94.59
64616;BME280;51027;42.162;24.754;2023-01-08T05:45:27;100442.75;;;1.07;94.21
64616;BME280;51027;42.162;24.754;2023-01-08T05:47:53;100437.53;;;1.04;93.93
64616;BME280;51027;42.162;24.754;2023-01-08T05:50:18;100429.69;;;1.01;94.34
64616;BME280;51027;42.162;24.754;2023-01-08T05:52:44;100434.97;;;1.07;94.02
64616;BME280;51027;42.162;24.754;2023-01-08T05:55:10;100423.06;;;1.23;93.27
64616;BME280;51027;42.162;24.754;2023-01-08T05:57:35;100441.34;;;1.36;92.88
64616;BME280;51027;42.162;24.754;2023-01-08T06:00:01;100445.88;;;1.62;91.71
64616;BME280;51027;42.162;24.754;2023-01-08T06:02:26;100441.53;;;1.56;91.50
64616;BME280;51027;42.162;24.754;2023-01-08T06:04:52;100425.81;;;1.42;91.82
64616;BME280;51027;42.162;24.754;2023-01-08T06:07:17;100457.22;;;1.68;91.30
64616;BME280;51027;42.162;24.754;2023-01-08T06:09:43;100452.97;;;1.78;90.35
64616;BME280;51027;42.162;24.754;2023-01-08T06:12:08;100449.34;;;1.58;91.12
64616;BME280;51027;42.162;24.754;2023-01-08T06:14:33;100458.00;;;1.58;91.18
64616;BME280;51027;42.162;24.754;2023-01-08T06:16:59;100451.25;;;1.79;90.07
64616;BME280;51027;42.162;24.754;2023-01-08T06:19:24;100456.44;;;1.80;90.03
64616;BME280;51027;42.162;24.754;2023-01-08T06:21:50;100451.69;;;2.43;87.05
64616;BME280;51027;42.162;24.754;2023-01-08T06:24:15;100461.03;;;2.13;87.65
64616;BME280;51027;42.162;24.754;2023-01-08T06:26:41;100449.31;;;2.76;84.90
64616;BME280;51027;42.162;24.754;2023-01-08T06:29:06;100452.50;;;2.29;84.85
64616;BME280;51027;42.162;24.754;2023-01-08T06:31:32;100443.69;;;2.05;87.06
64616;BME280;51027;42.162;24.754;2023-01-08T06:33:58;100449.34;;;1.61;88.73
64616;BME280;51027;42.162;24.754;2023-01-08T06:36:23;100468.06;;;2.25;87.36
64616;BME280;51027;42.162;24.754;2023-01-08T06:38:48;100471.56;;;2.31;86.52
64616;BME280;51027;42.162;24.754;2023-01-08T06:41:14;100470.03;;;2.66;86.06
64616;BME280;51027;42.162;24.754;2023-01-08T06:43:39;100451.03;;;2.80;84.28
64616;BME280;51027;42.162;24.754;2023-01-08T06:46:06;100469.38;;;3.12;83.68
64616;BME280;51027;42.162;24.754;2023-01-08T06:48:33;100477.28;;;3.54;81.12
64616;BME280;51027;42.162;24.754;2023-01-08T06:50:59;100482.56;;;3.80;80.19
64616;BME280;51027;42.162;24.754;2023-01-08T06:53:25;100477.34;;;4.31;77.05
64616;BME280;51027;42.162;24.754;2023-01-08T06:55:50;100487.50;;;2.91;82.65
64616;BME280;51027;42.162;24.754;2023-01-08T06:58:22;100484.94;;;3.05;83.44
64616;BME280;51027;42.162;24.754;2023-01-08T07:00:47;100486.84;;;3.53;81.27
64616;BME280;51027;42.162;24.754;2023-01-08T07:03:13;100486.00;;;3.85;80.01
64616;BME280;51027;42.162;24.754;2023-01-08T07:05:38;100490.38;;;3.80;79.36
64616;BME280;51027;42.162;24.754;2023-01-08T07:08:04;100463.44;;;4.00;78.03
64616;BME280;51027;42.162;24.754;2023-01-08T07:10:29;100470.72;;;5.61;72.67
64616;BME280;51027;42.162;24.754;2023-01-08T07:12:55;100480.19;;;6.78;68.02
64616;BME280;51027;42.162;24.754;2023-01-08T07:15:21;100480.88;;;6.96;65.38
64616;BME280;51027;42.162;24.754;2023-01-08T07:17:46;100471.84;;;8.35;62.08
64616;BME280;51027;42.162;24.754;2023-01-08T07:20:12;100476.97;;;8.43;60.13
64616;BME280;51027;42.162;24.754;2023-01-08T07:22:37;100481.38;;;9.30;57.45
64616;BME280;51027;42.162;24.754;2023-01-08T07:25:03;100479.31;;;8.04;60.44
64616;BME280;51027;42.162;24.754;2023-01-08T07:27:29;100494.94;;;6.87;65.12
64616;BME280;51027;42.162;24.754;2023-01-08T07:29:55;100482.22;;;8.87;59.34
64616;BME280;51027;42.162;24.754;2023-01-08T07:32:21;100493.69;;;7.82;61.46
64616;BME280;51027;42.162;24.754;2023-01-08T07:34:47;100496.81;;;7.46;63.22
64616;BME280;51027;42.162;24.754;2023-01-08T07:37:13;100485.03;;;8.30;61.26
64616;BME280;51027;42.162;24.754;2023-01-08T07:39:38;100488.34;;;9.71;56.67
64616;BME280;51027;42.162;24.754;2023-01-08T07:42:04;100488.34;;;10.44;53.99
64616;BME280;51027;42.162;24.754;2023-01-08T07:44:29;100479.31;;;12.03;50.09
64616;BME280;51027;42.162;24.754;2023-01-08T07:46:55;100494.88;;;10.63;52.47
64616;BME280;51027;42.162;24.754;2023-01-08T07:49:20;100489.09;;;10.49;53.56
64616;BME280;51027;42.162;24.754;2023-01-08T07:51:48;100498.59;;;11.18;51.32
64616;BME280;51027;42.162;24.754;2023-01-08T07:54:13;100483.81;;;11.42;51.33
64616;BME280;51027;42.162;24.754;2023-01-08T07:56:38;100482.09;;;13.94;45.39
64616;BME280;51027;42.162;24.754;2023-01-08T07:59:04;100496.50;;;12.17;47.78
64616;BME280;51027;42.162;24.754;2023-01-08T08:01:29;100485.88;;;10.02;53.58
64616;BME280;51027;42.162;24.754;2023-01-08T08:03:55;100497.16;;;11.95;48.95
64616;BME280;51027;42.162;24.754;2023-01-08T08:06:20;100483.25;;;13.65;46.12
64616;BME280;51027;42.162;24.754;2023-01-08T08:08:45;100486.66;;;14.75;42.21
64616;BME280;51027;42.162;24.754;2023-01-08T08:11:11;100484.69;;;16.99;37.23
64616;BME280;51027;42.162;24.754;2023-01-08T08:13:36;100485.97;;;14.90;39.72
64616;BME280;51027;42.162;24.754;2023-01-08T08:16:06;100479.31;;;13.30;42.75
64616;BME280;51027;42.162;24.754;2023-01-08T08:18:32;100495.44;;;12.97;44.37
64616;BME280;51027;42.162;24.754;2023-01-08T08:20:57;100497.34;;;12.93;43.96
64616;BME280;51027;42.162;24.754;2023-01-08T08:23:23;100473.63;;;11.89;46.50
64616;BME280;51027;42.162;24.754;2023-01-08T08:25:49;100498.88;;;13.01;44.61
64616;BME280;51027;42.162;24.754;2023-01-08T08:28:16;100494.44;;;12.76;45.04
64616;BME280;51027;42.162;24.754;2023-01-08T08:30:42;100498.53;;;13.80;43.47
64616;BME280;51027;42.162;24.754;2023-01-08T08:33:07;100499.16;;;12.68;45.47
64616;BME280;51027;42.162;24.754;2023-01-08T08:35:33;100497.22;;;16.09;39.06
64616;BME280;51027;42.162;24.754;2023-01-08T08:37:58;100491.34;;;17.73;35.67
64616;BME280;51027;42.162;24.754;2023-01-08T08:40:24;100487.53;;;17.12;35.68
64616;BME280;51027;42.162;24.754;2023-01-08T08:42:55;100489.38;;;14.93;39.68
64616;BME280;51027;42.162;24.754;2023-01-08T08:45:20;100487.75;;;16.75;37.29
64616;BME280;51027;42.162;24.754;2023-01-08T08:47:46;100481.72;;;18.02;34.60
64616;BME280;51027;42.162;24.754;2023-01-08T08:50:11;100488.09;;;18.59;33.56
64616;BME280;51027;42.162;24.754;2023-01-08T08:52:36;100464.72;;;20.05;31.53
64616;BME280;51027;42.162;24.754;2023-01-08T08:55:02;100463.88;;;22.20;28.43
64616;BME280;51027;42.162;24.754;2023-01-08T08:57:27;100478.78;;;22.59;27.88
64616;BME280;51027;42.162;24.754;2023-01-08T08:59:53;100480.03;;;22.77;26.94
64616;BME280;51027;42.162;24.754;2023-01-08T09:02:18;100463.41;;;22.02;27.85
64616;BME280;51027;42.162;24.754;2023-01-08T09:04:44;100461.97;;;21.48;28.11
64616;BME280;51027;42.162;24.754;2023-01-08T09:07:09;100482.84;;;19.73;30.43
64616;BME280;51027;42.162;24.754;2023-01-08T09:09:34;100462.50;;;22.38;27.46
64616;BME280;51027;42.162;24.754;2023-01-08T09:12:00;100477.00;;;22.70;26.48
64616;BME280;51027;42.162;24.754;2023-01-08T09:14:26;100480.66;;;22.10;27.35
64616;BME280;51027;42.162;24.754;2023-01-08T09:16:51;100465.34;;;23.72;25.81
64616;BME280;51027;42.162;24.754;2023-01-08T09:19:17;100474.09;;;20.65;28.48
64616;BME280;51027;42.162;24.754;2023-01-08T09:21:42;100469.03;;;23.15;26.31
64616;BME280;51027;42.162;24.754;2023-01-08T09:24:08;100468.28;;;19.22;30.96
64616;BME280;51027;42.162;24.754;2023-01-08T09:26:33;100469.03;;;20.60;29.06
64616;BME280;51027;42.162;24.754;2023-01-08T09:28:59;100449.78;;;20.93;28.91
64616;BME280;51027;42.162;24.754;2023-01-08T09:31:25;100465.53;;;20.85;29.39
64616;BME280;51027;42.162;24.754;2023-01-08T09:33:51;100458.91;;;21.29;29.07
64616;BME280;51027;42.162;24.754;2023-01-08T09:36:17;100448.72;;;23.56;26.47
64616;BME280;51027;42.162;24.754;2023-01-08T09:38:43;100456.22;;;21.78;28.02
64616;BME280;51027;42.162;24.754;2023-01-08T09:41:17;100443.00;;;20.50;29.99
64616;BME280;51027;42.162;24.754;2023-01-08T09:43:45;100437.81;;;19.39;31.61
64616;BME280;51027;42.162;24.754;2023-01-08T09:46:13;100430.22;;;17.85;34.33
64616;BME280;51027;42.162;24.754;2023-01-08T09:48:40;100435.88;;;21.26;29.27
64616;BME280;51027;42.162;24.754;2023-01-08T09:51:13;100425.03;;;21.65;28.33
64616;BME280;51027;42.162;24.754;2023-01-08T09:53:39;100407.31;;;16.52;34.88
64616;BME280;51027;42.162;24.754;2023-01-08T09:56:13;100424.44;;;17.30;35.80
64616;BME280;51027;42.162;24.754;2023-01-08T09:58:49;100413.44;;;21.15;29.26
64616;BME280;51027;42.162;24.754;2023-01-08T10:01:36;100423.03;;;22.27;26.99
64616;BME280;51027;42.162;24.754;2023-01-08T10:04:16;100410.63;;;18.17;31.91
64616;BME280;51027;42.162;24.754;2023-01-08T10:06:51;100417.09;;;18.12;33.77
64616;BME280;51027;42.162;24.754;2023-01-08T10:09:22;100392.69;;;21.06;29.33
64616;BME280;51027;42.162;24.754;2023-01-08T10:11:49;100396.06;;;21.70;28.33
64616;BME280;51027;42.162;24.754;2023-01-08T10:14:21;100399.06;;;19.46;31.57
64616;BME280;51027;42.162;24.754;2023-01-08T10:16:51;100369.66;;;19.60;30.86
64616;BME280;51027;42.162;24.754;2023-01-08T10:19:18;100387.34;;;19.63;30.52
64616;BME280;51027;42.162;24.754;2023-01-08T10:21:43;100379.75;;;22.32;27.62
64616;BME280;51027;42.162;24.754;2023-01-08T10:24:09;100382.34;;;23.56;25.76
64616;BME280;51027;42.162;24.754;2023-01-08T10:26:36;100373.69;;;21.58;27.80
64616;BME280;51027;42.162;24.754;2023-01-08T10:29:16;100376.19;;;23.22;26.17
64616;BME280;51027;42.162;24.754;2023-01-08T10:31:51;100366.19;;;26.31;22.50
64616;BME280;51027;42.162;24.754;2023-01-08T10:34:31;100358.75;;;24.45;24.43
64616;BME280;51027;42.162;24.754;2023-01-08T10:37:23;100350.09;;;24.09;24.47
64616;BME280;51027;42.162;24.754;2023-01-08T10:39:51;100354.59;;;20.51;28.59
64616;BME280;51027;42.162;24.754;2023-01-08T10:42:19;100349.25;;;25.02;23.78
64616;BME280;51027;42.162;24.754;2023-01-08T10:44:58;100353.16;;;24.88;23.50
64616;BME280;51027;42.162;24.754;2023-01-08T10:47:27;100342.72;;;25.64;23.09
64616;BME280;51027;42.162;24.754;2023-01-08T10:49:54;100341.75;;;23.60;25.45
64616;BME280;51027;42.162;24.754;2023-01-08T10:52:24;100349.25;;;21.74;26.94
64616;BME280;51027;42.162;24.754;2023-01-08T10:54:51;100331.88;;;24.13;24.26
64616;BME280;51027;42.162;24.754;2023-01-08T10:59:47;100320.13;;;25.26;23.42
64616;BME280;51027;42.162;24.754;2023-01-08T11:02:32;100319.03;;;25.58;23.30
64616;BME280;51027;42.162;24.754;2023-01-08T11:04:58;100313.44;;;25.31;23.38
64616;BME280;51027;42.162;24.754;2023-01-08T11:07:26;100316.19;;;22.43;26.40
64616;BME280;51027;42.162;24.754;2023-01-08T11:09:52;100310.97;;;25.08;23.63
64616;BME280;51027;42.162;24.754;2023-01-08T11:12:27;100309.75;;;23.45;25.21
64616;BME280;51027;42.162;24.754;2023-01-08T11:14:55;100304.88;;;23.50;25.11
64616;BME280;51027;42.162;24.754;2023-01-08T11:17:24;100304.66;;;22.99;25.71
64616;BME280;51027;42.162;24.754;2023-01-08T11:19:51;100308.78;;;24.62;23.60
64616;BME280;51027;42.162;24.754;2023-01-08T11:22:22;100301.88;;;25.78;22.83
64616;BME280;51027;42.162;24.754;2023-01-08T11:24:49;100296.97;;;26.40;22.27
64616;BME280;51027;42.162;24.754;2023-01-08T11:27:28;100296.00;;;26.12;22.16
64616;BME280;51027;42.162;24.754;2023-01-08T11:32:35;100297.50;;;22.08;26.74
64616;BME280;51027;42.162;24.754;2023-01-08T11:35:30;100296.38;;;20.91;28.62
64616;BME280;51027;42.162;24.754;2023-01-08T11:37:58;100291.34;;;18.77;31.21
64616;BME280;51027;42.162;24.754;2023-01-08T11:44:32;100286.53;;;17.05;35.12
64616;BME280;51027;42.162;24.754;2023-01-08T11:54:49;100267.56;;;17.11;35.16
64616;BME280;51027;42.162;24.754;2023-01-08T12:00:30;100261.00;;;19.86;31.23
64616;BME280;51027;42.162;24.754;2023-01-08T12:03:01;100261.59;;;18.26;33.22
64616;BME280;51027;42.162;24.754;2023-01-08T12:05:28;100259.03;;;18.67;32.78
64616;BME280;51027;42.162;24.754;2023-01-08T12:07:59;100257.59;;;20.60;30.21
64616;BME280;51027;42.162;24.754;2023-01-08T12:10:32;100254.16;;;19.42;31.93
64616;BME280;51027;42.162;24.754;2023-01-08T12:16:05;100246.66;;;24.44;25.39
64616;BME280;51027;42.162;24.754;2023-01-08T12:32:58;100253.06;;;17.17;34.70
64616;BME280;51027;42.162;24.754;2023-01-08T12:35:30;100243.88;;;17.67;34.05
64616;BME280;51027;42.162;24.754;2023-01-08T12:38:20;100241.13;;;20.16;30.69
64616;BME280;51027;42.162;24.754;2023-01-08T12:40:56;100236.97;;;22.94;27.06
64616;BME280;51027;42.162;24.754;2023-01-08T12:46:14;100230.28;;;23.64;25.96
64616;BME280;51027;42.162;24.754;2023-01-08T12:48:42;100225.63;;;23.34;25.97
64616;BME280;51027;42.162;24.754;2023-01-08T12:51:12;100240.31;;;23.18;26.11
64616;BME280;51027;42.162;24.754;2023-01-08T12:58:46;100246.50;;;19.23;30.47
64616;BME280;51027;42.162;24.754;2023-01-08T13:04:01;100255.38;;;15.76;36.78
64616;BME280;51027;42.162;24.754;2023-01-08T13:06:29;100248.41;;;15.56;37.71
64616;BME280;51027;42.162;24.754;2023-01-08T13:08:56;100240.13;;;15.45;38.37
64616;BME280;51027;42.162;24.754;2023-01-08T13:11:28;100235.72;;;15.27;38.30
64616;BME280;51027;42.162;24.754;2023-01-08T13:13:58;100241.53;;;14.99;38.71
64616;BME280;51027;42.162;24.754;2023-01-08T13:16:24;100237.06;;;14.24;40.33
64616;BME280;51027;42.162;24.754;2023-01-08T13:19:01;100226.56;;;14.23;40.54
64616;BME280;51027;42.162;24.754;2023-01-08T13:26:51;100237.97;;;18.49;32.80
64616;BME280;51027;42.162;24.754;2023-01-08T13:29:46;100233.56;;;19.17;32.43
64616;BME280;51027;42.162;24.754;2023-01-08T13:32:41;100236.78;;;20.77;29.16
64616;BME280;51027;42.162;24.754;2023-01-08T13:37:39;100223.34;;;20.02;30.22
64616;BME280;51027;42.162;24.754;2023-01-08T13:43:37;100236.81;;;20.64;29.41
64616;BME280;51027;42.162;24.754;2023-01-08T13:46:17;100228.25;;;21.43;28.10
64616;BME280;51027;42.162;24.754;2023-01-08T13:49:18;100232.03;;;21.17;28.29
64616;BME280;51027;42.162;24.754;2023-01-08T13:51:47;100227.41;;;20.20;29.37
64616;BME280;51027;42.162;24.754;2023-01-08T13:56:42;100231.69;;;20.23;29.38
64616;BME280;51027;42.162;24.754;2023-01-08T14:02:32;100226.84;;;18.13;31.85
64616;BME280;51027;42.162;24.754;2023-01-08T14:05:00;100245.56;;;17.83;32.81
64616;BME280;51027;42.162;24.754;2023-01-08T14:07:27;100249.19;;;16.91;33.99
64616;BME280;51027;42.162;24.754;2023-01-08T14:09:53;100246.75;;;15.89;35.95
64616;BME280;51027;42.162;24.754;2023-01-08T14:12:23;100234.75;;;14.93;37.83
64616;BME280;51027;42.162;24.754;2023-01-08T14:14:55;100237.16;;;14.23;39.66